Latest Weather Observations for Swan Island

IDT60801

Issued at 6:02 pm EST Monday 25 July 2016 (issued every 30 minutes, with the page automatically refreshed every 10 minutes)

About weather observations | Map of weather stations | Latest weather observations for TAS | Other Formats
Station Details ID: 092123 Name: SWAN ISLAND Lat: -40.73 Lon: 148.12 Height: 15.0 m
Data from the previous 72 hours. | See also: Recent months at Swan Island
Date/Time
EST
Temp
°C
App
Temp
°C
Dew
Point
°C
Rel
Hum
%
Delta-T
°C
Wind Press
QNH
hPa
Press
MSL
hPa
Rain since
9am
mm
Dir  Spd
km/h
Gust
km/h
Spd
kts
Gust
kts
25/06:00pm 11.7 1.0 8.0 78 1.8 NW 54 67 29 36 996.7 996.7 0.6
25/05:30pm 11.2 2.0 8.2 82 1.5 NW 46 65 25 35 996.8 996.8 0.6
25/05:28pm 11.1 2.5 8.3 83 1.4 NW 43 65 23 35 996.9 996.9 0.6
25/05:00pm 11.2 2.9 7.7 79 1.7 NW 41 54 22 29 997.7 997.7 0.6
25/04:30pm 11.7 4.2 7.8 77 1.9 WNW 37 48 20 26 997.7 997.7 0.6
25/04:00pm 11.2 5.1 8.1 81 1.5 WNW 30 43 16 23 998.1 998.1 0.6
25/03:30pm 11.2 4.1 8.1 81 1.5 WNW 35 50 19 27 998.5 998.5 0.6
25/03:00pm 11.0 4.2 7.9 81 1.5 WNW 33 46 18 25 998.6 998.6 0.6
25/02:49pm 11.2 5.3 7.7 79 1.7 W 28 46 15 25 998.6 998.6 0.6
25/02:30pm 11.9 5.5 8.4 79 1.7 WNW 32 44 17 24 998.5 998.5 0.6
25/02:00pm 11.8 6.1 8.5 80 1.6 WNW 28 43 15 23 998.8 998.8 0.6
25/01:30pm 12.1 5.5 8.6 79 1.7 WNW 33 46 18 25 999.0 999.0 0.6
25/01:00pm 12.1 5.2 8.8 80 1.7 WNW 35 46 19 25 999.2 999.2 0.6
25/12:30pm 12.3 6.5 9.5 83 1.4 WNW 30 43 16 23 999.5 999.5 0.6
25/12:00pm 12.1 5.7 9.3 83 1.4 WNW 33 50 18 27 999.7 999.7 0.6
25/11:39am 12.6 6.5 10.3 86 1.2 WNW 33 54 18 29 999.7 999.7 0.6
25/11:30am 12.0 4.2 9.6 85 1.2 WNW 41 54 22 29 999.5 999.5 0.6
25/11:00am 12.2 5.0 10.6 90 0.8 NW 39 56 21 30 999.6 999.6 0.6
25/10:57am 12.1 4.9 10.5 90 0.8 NW 39 56 21 30 999.6 999.6 0.6
25/10:54am 11.9 4.6 10.3 90 0.8 NW 39 56 21 30 999.6 999.6 0.6
25/10:30am 11.4 2.4 10.1 92 0.7 NNW 48 57 26 31 999.6 999.6 0.6
25/10:08am 10.8 1.7 9.7 93 0.6 NNW 48 67 26 36 999.4 999.4 0.6
25/10:00am 10.6 0.9 9.2 91 0.7 NNW 50 61 27 33 999.6 999.6 0.4
25/09:30am 11.0 1.4 9.3 89 0.8 NNW 50 61 27 33 1000.3 1000.3 0.0
25/09:00am 10.6 1.3 9.2 91 0.7 NNW 48 56 26 30 1000.6 1000.6 12.6
25/08:30am 10.5 1.5 8.8 89 0.8 NNW 46 56 25 30 1000.9 1000.9 12.4
25/08:00am 10.5 1.6 9.1 91 0.7 NW 46 54 25 29 1001.0 1001.0 12.4
25/07:30am 10.4 1.4 8.8 90 0.8 NW 46 57 25 31 1001.0 1001.0 12.2
25/07:24am 10.6 2.2 9.0 90 0.8 NW 43 54 23 29 1001.0 1001.0 12.2
25/07:00am 8.9 2.5 7.0 88 0.9 NW 30 52 16 28 1001.3 1001.3 11.8
25/06:30am 10.1 1.5 8.0 87 1.0 NW 43 48 23 26 1001.1 1001.1 8.4
25/06:00am 10.4 2.1 7.8 84 1.3 NW 41 50 22 27 1001.0 1001.0 8.4
25/05:30am 10.8 3.3 7.9 82 1.4 NW 37 43 20 23 1001.0 1001.0 8.2
25/05:00am 10.6 2.6 7.3 80 1.6 NW 39 44 21 24 1001.1 1001.1 8.2
25/04:30am 10.6 3.9 7.3 80 1.6 NW 32 43 17 23 1001.2 1001.2 8.2
25/04:00am 10.3 3.5 7.5 83 1.3 NW 33 37 18 20 1001.1 1001.1 8.2
25/03:30am 10.3 3.4 7.4 82 1.4 NW 33 43 18 23 1001.4 1001.4 8.2
25/03:00am 10.9 2.4 7.0 77 1.9 NW 41 52 22 28 1001.5 1001.5 8.2
25/02:30am 10.9 2.8 7.0 77 1.9 NW 39 44 21 24 1001.7 1001.7 8.2
25/02:00am 10.8 2.8 7.3 79 1.7 NW 39 46 21 25 1001.9 1001.9 8.2
25/01:30am 10.6 3.5 8.0 84 1.3 NW 35 41 19 22 1002.0 1002.0 8.2
25/01:00am 10.4 4.4 8.7 89 0.8 NW 30 37 16 20 1002.0 1002.0 8.2
25/12:30am 9.1 5.7 7.7 91 0.7 NNW 15 19 8 10 1002.4 1002.4 8.2
25/12:00am 7.5 5.3 6.1 91 0.6 WNW 7 11 4 6 1002.8 1002.8 8.0
 
Date/Time
EST
Temp
°C
App
Temp
°C
Dew
Point
°C
Rel
Hum
%
Delta-T
°C
Wind Press
QNH
hPa
Press
MSL
hPa
Rain since
9am
mm
Dir  Spd
km/h
Gust
km/h
Spd
kts
Gust
kts
24/11:30pm 7.4 5.1 5.9 90 0.7 WSW 7 13 4 7 1003.1 1003.1 8.0
24/11:00pm 7.9 5.3 6.2 89 0.8 SW 9 15 5 8 1003.6 1003.6 7.2
24/10:30pm 8.5 6.0 6.5 87 0.9 W 9 15 5 8 1003.5 1003.5 6.2
24/10:00pm 8.1 5.1 6.2 88 0.9 W 11 19 6 10 1003.5 1003.5 6.2
24/09:30pm 8.7 5.5 6.8 88 0.9 W 13 20 7 11 1003.8 1003.8 6.2
24/09:00pm 8.7 4.7 6.7 87 0.9 WNW 17 22 9 12 1004.0 1004.0 6.2
24/08:30pm 8.1 1.9 6.1 87 0.9 WNW 28 37 15 20 1004.1 1004.1 6.2
24/08:00pm 8.3 1.2 6.4 88 0.9 NW 33 44 18 24 1004.5 1004.6 6.0
24/07:30pm 7.9 3.9 6.7 92 0.6 WNW 17 37 9 20 1004.6 1004.7 6.0
24/07:00pm 7.5 3.0 6.1 91 0.6 W 19 24 10 13 1005.0 1005.1 6.0
24/06:30pm 8.0 3.4 6.5 90 0.7 W 20 32 11 17 1005.0 1005.1 4.2
24/06:19pm 8.1 3.1 6.4 89 0.8 WNW 22 32 12 17 1004.9 1005.0 3.6
24/06:00pm 8.4 0.7 6.9 90 0.7 NW 37 43 20 23 1004.6 1004.7 3.2
24/05:30pm 8.0 1.5 6.6 91 0.6 NW 30 37 16 20 1004.7 1004.8 3.2
24/05:00pm 8.1 2.0 6.7 91 0.6 NNW 28 32 15 17 1004.7 1004.8 2.0
24/04:30pm 8.6 3.3 6.9 89 0.8 NNW 24 30 13 16 1004.8 1004.9 1.8
24/04:00pm 8.9 3.9 6.5 85 1.1 NW 22 30 12 16 1004.8 1004.9 1.2
24/03:30pm 9.2 2.3 6.3 82 1.3 NW 32 39 17 21 1004.7 1004.8 0.4
24/03:00pm 9.3 3.4 6.0 80 1.5 NNW 26 32 14 17 1004.9 1005.0 0.4
24/02:30pm 9.1 3.2 5.7 79 1.5 NNW 26 32 14 17 1005.2 1005.3 0.2
24/02:00pm 10.8 5.8 6.4 74 2.1 WNW 22 30 12 16 1005.0 1005.1 0.2
24/01:30pm 10.5 5.5 6.6 77 1.8 NW 22 32 12 17 1005.2 1005.3 0.2
24/01:00pm 10.7 5.9 4.4 65 2.8 WNW 19 26 10 14 1005.7 1005.8 0.0
24/12:30pm 11.8 7.9 5.4 65 3.0 WNW 15 24 8 13 1005.9 1006.0 0.0
24/12:00pm 11.0 7.1 5.3 68 2.6 WNW 15 24 8 13 1006.4 1006.5 0.0
24/11:30am 10.6 7.0 5.2 69 2.5 WNW 13 20 7 11 1006.9 1007.0 0.0
24/11:00am 10.7 7.6 5.7 71 2.3 WNW 11 15 6 8 1007.3 1007.4 0.0
24/10:30am 10.4 7.7 5.8 73 2.1 WNW 9 13 5 7 1007.3 1007.4 0.0
24/10:00am 8.8 5.1 4.4 74 1.9 W 13 15 7 8 1007.4 1007.5 0.0
24/09:30am 8.2 5.3 4.8 79 1.5 W 9 13 5 7 1007.3 1007.4 0.0
24/09:00am 6.5 4.0 3.5 81 1.3 WSW 6 9 3 5 1007.4 1007.5 0.2
24/08:30am 5.9 3.0 2.7 80 1.3 WSW 7 9 4 5 1007.4 1007.5 0.2
24/08:00am 5.6 2.7 2.4 80 1.3 WSW 7 9 4 5 1007.4 1007.5 0.2
24/07:30am 5.0 1.6 1.7 79 1.3 WSW 9 11 5 6 1007.3 1007.4 0.2
24/07:00am 5.2 2.2 1.7 78 1.4 WSW 7 9 4 5 1007.5 1007.6 0.2
24/06:30am 6.1 2.4 2.6 78 1.4 W 11 15 6 8 1007.3 1007.4 0.2
24/06:00am 5.2 1.7 1.5 77 1.5 W 9 13 5 7 1007.5 1007.6 0.2
24/05:30am 5.0 1.9 1.3 77 1.5 SSW 7 11 4 6 1006.9 1007.0 0.2
24/05:00am 4.2 0.9 0.4 76 1.5 SW 7 11 4 6 1006.9 1007.0 0.2
24/04:30am 4.4 1.2 0.6 76 1.5 SW 7 9 4 5 1007.0 1007.1 0.2
24/04:00am 4.0 0.7 0.0 75 1.5 SW 7 9 4 5 1007.1 1007.2 0.2
24/03:30am 4.6 1.0 0.4 74 1.6 WSW 9 13 5 7 1007.1 1007.2 0.2
24/03:00am 4.8 0.4 0.6 74 1.6 WSW 13 19 7 10 1007.2 1007.3 0.2
24/02:30am 4.3 0.2 0.1 74 1.6 WSW 11 15 6 8 1007.4 1007.5 0.2
24/02:00am 4.4 0.0 0.2 74 1.6 WSW 13 19 7 10 1007.3 1007.4 0.2
24/01:30am 4.8 0.8 0.4 73 1.7 SW 11 17 6 9 1007.3 1007.4 0.2
24/01:00am 5.2 0.5 0.8 73 1.7 WSW 15 20 8 11 1007.2 1007.3 0.2
24/12:30am 5.7 0.2 0.9 71 1.9 WSW 19 24 10 13 1006.8 1006.9 0.2
24/12:00am 5.7 0.5 0.3 68 2.1 WSW 17 32 9 17 1006.7 1006.8 0.2
 
Date/Time
EST
Temp
°C
App
Temp
°C
Dew
Point
°C
Rel
Hum
%
Delta-T
°C
Wind Press
QNH
hPa
Press
MSL
hPa
Rain since
9am
mm
Dir  Spd
km/h
Gust
km/h
Spd
kts
Gust
kts
23/11:30pm 5.7 0.5 0.1 67 2.2 WSW 17 24 9 13 1006.6 1006.7 0.2
23/11:00pm 5.6 0.4 0.0 67 2.2 WSW 17 26 9 14 1006.5 1006.6 0.2
23/10:30pm 6.1 0.0 0.6 68 2.1 WSW 22 37 12 20 1005.8 1005.9 0.2
23/10:00pm 5.7 -0.5 -0.1 66 2.2 WSW 22 35 12 19 1005.3 1005.4 0.2
23/09:30pm 5.8 -0.3 0.2 67 2.2 WSW 22 39 12 21 1004.9 1005.0 0.2
23/09:00pm 6.0 -0.6 -0.1 65 2.4 WSW 24 41 13 22 1004.3 1004.4 0.2
23/08:30pm 6.0 -0.8 0.6 68 2.1 WSW 26 41 14 22 1003.5 1003.5 0.2
23/08:00pm 6.0 0.0 1.3 72 1.9 WSW 22 37 12 20 1002.7 1002.7 0.2
23/07:30pm 6.2 0.7 2.1 75 1.7 WSW 20 35 11 19 1001.9 1001.9 0.2
23/07:00pm 6.2 0.4 2.3 76 1.6 WSW 22 35 12 19 1001.1 1001.1 0.2
23/06:30pm 6.1 0.2 2.0 75 1.7 WSW 22 37 12 20 1000.0 1000.0 0.2
23/06:04pm 6.2 -0.8 2.1 75 1.7 WSW 28 48 15 26 998.8 998.8 0.2
23/06:00pm 6.2 -0.4 2.1 75 1.7 WSW 26 39 14 21 998.7 998.7 0.2
23/05:30pm 6.5 0.3 2.4 75 1.7 WSW 24 39 13 21 997.6 997.6 0.2
23/05:00pm 6.9 1.2 3.0 76 1.6 WSW 22 37 12 20 996.7 996.7 0.2
23/04:52pm 7.0 0.2 3.3 77 1.6 WSW 28 46 15 25 996.4 996.4 0.2
23/04:30pm 6.6 -2.4 2.7 76 1.6 W 39 54 21 29 996.2 996.2 0.2
23/04:14pm 7.9 -1.2 2.0 66 2.4 W 39 59 21 32 995.9 995.9 0.0
23/04:00pm 8.2 -1.2 2.2 66 2.5 W 41 57 22 31 995.6 995.6 0.0
23/03:39pm 8.8 -0.5 3.0 67 2.5 W 41 59 22 32 995.3 995.3 0.0
23/03:30pm 8.4 -2.5 1.3 61 2.9 W 48 65 26 35 995.1 995.1 0.0
23/03:03pm 8.5 -1.9 2.1 64 2.7 W 46 67 25 36 995.0 995.0 0.0
23/03:00pm 8.0 -3.2 1.6 64 2.6 W 50 67 27 36 994.9 994.9 0.0
23/02:34pm 8.2 -2.2 1.8 64 2.6 W 46 65 25 35 994.8 994.8 0.0
23/02:30pm 8.1 -3.1 1.7 64 2.6 W 50 65 27 35 994.7 994.7 0.0
23/02:02pm 8.7 -1.2 1.8 62 2.9 W 43 67 23 36 994.3 994.3 0.0
23/02:00pm 9.0 -0.4 2.1 62 2.9 W 41 59 22 32 994.3 994.3 0.0
23/01:30pm 8.3 -3.9 0.5 58 3.1 W 54 72 29 39 994.1 994.1 0.0
23/01:00pm 8.6 -1.9 1.5 61 2.9 W 46 72 25 39 993.6 993.6 0.0
23/12:30pm 8.7 -2.5 1.8 62 2.9 W 50 69 27 37 993.0 993.0 0.0
23/12:00pm 8.3 -1.5 0.1 56 3.3 WSW 41 59 22 32 992.7 992.7 0.0
23/11:30am 7.9 -2.5 -0.1 57 3.1 WSW 44 63 24 34 992.2 992.2 0.0
23/11:00am 7.9 -1.8 0.6 60 2.9 WSW 41 63 22 34 991.9 991.9 0.0
23/10:30am 7.6 -1.6 1.0 63 2.6 WSW 39 63 21 34 991.6 991.6 0.0
23/10:00am 7.2 -3.1 0.2 61 2.8 WSW 44 69 24 37 990.8 990.8 0.0
23/09:30am 8.2 -2.0 1.1 61 2.9 WSW 44 67 24 36 990.0 990.0 0.0
23/09:00am 8.2 -3.2 2.7 68 2.3 W 52 72 28 39 989.1 989.1 1.8
23/08:30am 8.6 -2.1 2.8 67 2.5 W 48 74 26 40 988.8 988.8 1.8
23/08:00am 8.4 -3.3 3.1 69 2.3 W 54 76 29 41 988.2 988.2 1.8
23/07:30am 8.6 -2.3 3.8 72 2.1 W 50 70 27 38 987.6 987.6 1.8
23/07:00am 8.7 -2.0 4.5 75 1.9 W 50 70 27 38 987.0 987.0 1.8
23/06:30am 9.0 0.1 5.0 76 1.8 W 41 63 22 34 986.6 986.6 1.8
23/06:00am 8.2 -0.4 4.8 79 1.5 W 39 61 21 33 986.3 986.3 1.8
23/05:42am 9.4 -0.6 4.4 71 2.2 W 46 78 25 42 985.8 985.8 1.6
23/05:30am 9.7 1.0 4.1 68 2.5 W 39 57 21 31 985.8 985.8 1.6
23/05:22am 9.8 0.3 4.0 67 2.6 W 43 63 23 34 985.7 985.7 1.6
23/05:00am 9.9 0.9 4.5 69 2.4 W 41 57 22 31 985.5 985.5 1.6
23/04:48am 10.0 2.6 4.0 66 2.6 W 32 50 17 27 985.5 985.5 1.6
23/04:30am 10.0 2.1 4.6 69 2.4 W 35 46 19 25 985.4 985.4 1.6
23/04:00am 10.1 3.0 5.3 72 2.2 W 32 43 17 23 985.6 985.6 1.6
23/03:30am 9.8 3.0 5.0 72 2.2 W 30 41 16 22 985.7 985.7 1.6
23/03:00am 9.8 3.6 4.4 69 2.4 W 26 41 14 22 986.0 986.0 1.6
23/02:30am 9.9 2.6 4.3 68 2.5 W 32 44 17 24 986.4 986.4 1.6
23/02:00am 10.1 2.8 4.7 69 2.5 W 32 43 17 23 986.5 986.5 1.6
23/01:30am 9.9 2.4 4.3 68 2.5 W 33 48 18 26 986.4 986.4 1.6
23/01:00am 10.2 3.8 5.0 70 2.4 W 28 43 15 23 986.8 986.8 1.6
23/12:30am 10.4 3.0 5.0 69 2.4 WNW 33 44 18 24 987.0 987.0 1.6
23/12:00am 10.1 3.2 4.5 68 2.5 W 30 43 16 23 987.5 987.5 1.6
 
Date/Time
EST
Temp
°C
App
Temp
°C
Dew
Point
°C
Rel
Hum
%
Delta-T
°C
Wind Press
QNH
hPa
Press
MSL
hPa
Rain since
9am
mm
Dir  Spd
km/h
Gust
km/h
Spd
kts
Gust
kts
22/11:30pm 10.3 3.5 5.1 70 2.4 W 30 43 16 23 987.7 987.7 1.6
22/11:00pm 10.2 3.0 5.2 71 2.3 W 32 48 17 26 988.1 988.1 1.6
22/10:31pm 10.4 3.1 5.4 71 2.3 WNW 33 52 18 28 988.6 988.6 1.6
22/10:30pm 10.5 3.4 5.5 71 2.3 WNW 32 50 17 27 988.6 988.6 1.6
22/10:00pm 10.7 4.0 5.7 71 2.3 WNW 30 43 16 23 988.8 988.8 1.6
22/09:30pm 10.7 4.8 5.7 71 2.3 W 26 39 14 21 989.1 989.1 1.6
22/09:03pm 10.8 4.1 5.8 71 2.3 W 30 48 16 26 989.0 989.0 1.6
22/09:00pm 11.0 4.0 6.0 71 2.4 WNW 32 48 17 26 989.0 989.0 1.6
22/08:38pm 11.1 4.2 6.3 72 2.2 W 32 52 17 28 989.0 989.0 1.6
22/08:30pm 11.0 3.1 6.0 71 2.3 W 37 52 20 28 988.9 988.9 1.6
22/08:00pm 11.2 2.9 5.9 70 2.5 W 39 59 21 32 989.0 989.0 1.6
22/07:30pm 11.2 2.4 5.5 68 2.6 W 41 61 22 33 988.4 988.4 1.6
22/07:00pm 11.0 1.9 6.6 74 2.1 W 44 65 24 35 988.0 988.0 1.6
22/06:30pm 11.5 2.0 6.6 72 2.3 W 46 70 25 38 988.1 988.1 1.6

Other Formats:

Comma delimited format used in spreadsheet applications
http://www.bom.gov.au/fwo/IDT60801/IDT60801.95985.axf

JavaScript Object Notation format (JSON) in row-major order
http://www.bom.gov.au/fwo/IDT60801/IDT60801.95985.json